Airport Name : Bolzano

Other Name : Bolzano

ICAO : LIPB

IATA : BZO

FAA :

Latitude : 46.460194

Longitude : 11.326383

Country : Italy

Local Date and Time : 19 Jun 2024 03:58

 

TAF (Terminal Aerodrome Forecast)

TAF LIPB 181700Z 1818/1918 19010KT 9999 FEW070 BECMG 1818/1820 VRB05KT BECMG 1914/1916 19010KT

 

METAR (METeorological Aerodrome Report)